createdAt,value
2017-08-12T00:01:39.780Z,4.25
2017-08-12T00:04:07.304Z,3.83
2017-08-12T00:06:34.809Z,4.15
2017-08-12T00:09:02.313Z,3.80
2017-08-12T00:11:29.816Z,4.95
2017-08-12T00:13:57.316Z,3.58
2017-08-12T00:16:24.812Z,4.57
2017-08-12T00:18:52.338Z,4.10
2017-08-12T00:21:19.848Z,4.45
2017-08-12T00:23:47.356Z,4.70
2017-08-12T00:26:14.861Z,5.87
2017-08-12T00:28:42.409Z,5.15
2017-08-12T00:31:09.918Z,5.03
2017-08-12T00:33:37.426Z,4.60
2017-08-12T00:36:04.928Z,4.57
2017-08-12T00:38:32.458Z,5.70
2017-08-12T00:40:59.960Z,5.70
2017-08-12T00:43:27.468Z,5.78
2017-08-12T00:45:54.972Z,7.05
2017-08-12T00:48:22.476Z,5.00
2017-08-12T00:50:49.980Z,5.50
2017-08-12T00:53:17.486Z,8.63
2017-08-12T00:55:45.032Z,8.20
2017-08-12T00:58:13.519Z,7.00
2017-08-12T01:00:41.033Z,10.10
2017-08-12T01:03:08.549Z,10.63
2017-08-12T01:05:36.056Z,11.48
2017-08-12T01:08:03.569Z,11.40
2017-08-12T01:10:31.082Z,13.40
2017-08-12T01:12:58.596Z,19.20
2017-08-12T01:15:26.092Z,18.58
2017-08-12T01:17:53.608Z,17.40
2017-08-12T01:20:21.117Z,15.55
2017-08-12T01:22:48.638Z,16.27
2017-08-12T01:25:16.161Z,14.68
2017-08-12T01:27:43.685Z,16.15
2017-08-12T01:30:11.200Z,17.35
2017-08-12T01:32:40.692Z,20.05
2017-08-12T01:35:08.315Z,18.65
2017-08-12T01:37:36.833Z,15.93
2017-08-12T01:40:04.351Z,17.87
2017-08-12T01:42:31.867Z,19.12
2017-08-12T01:44:59.380Z,15.68
2017-08-12T01:47:26.897Z,19.33
2017-08-12T01:49:54.409Z,19.48
2017-08-12T01:52:21.931Z,16.90
2017-08-12T01:54:49.441Z,18.80
2017-08-12T01:57:16.944Z,18.35
2017-08-12T01:59:44.449Z,15.38
2017-08-12T02:02:11.961Z,15.82
2017-08-12T02:04:39.467Z,17.62
2017-08-12T02:07:06.976Z,12.82
2017-08-12T02:09:34.475Z,19.27
2017-08-12T02:12:01.983Z,15.38
2017-08-12T02:14:29.485Z,12.70
2017-08-12T02:16:56.992Z,15.70
2017-08-12T02:19:24.509Z,11.48
2017-08-12T02:21:52.060Z,10.95
2017-08-12T02:24:20.560Z,13.10
2017-08-12T02:26:48.089Z,20.27
2017-08-12T02:29:15.614Z,22.77
2017-08-12T02:31:43.121Z,15.85
2017-08-12T02:34:10.647Z,20.10
2017-08-12T02:36:38.168Z,19.52
2017-08-12T02:39:05.688Z,17.17
2017-08-12T02:41:33.205Z,16.10
2017-08-12T02:44:00.504Z,17.45
2017-08-12T02:46:28.021Z,19.37
2017-08-12T02:48:55.541Z,16.92
2017-08-12T02:51:23.050Z,15.00
2017-08-12T02:53:50.561Z,14.75
2017-08-12T02:56:18.081Z,19.75
2017-08-12T02:58:45.588Z,14.38
2017-08-12T03:01:13.182Z,17.48
2017-08-12T03:03:40.701Z,16.87
2017-08-12T03:06:09.198Z,20.12
2017-08-12T03:08:36.700Z,18.35
2017-08-12T03:11:04.215Z,19.83
2017-08-12T03:13:31.720Z,11.82
2017-08-12T03:15:59.228Z,15.00
2017-08-12T03:18:26.754Z,12.37
2017-08-12T03:20:54.325Z,13.93
2017-08-12T03:23:21.841Z,12.13
2017-08-12T03:25:49.356Z,13.45
2017-08-12T03:28:16.868Z,12.57
2017-08-12T03:30:44.378Z,14.27
2017-08-12T03:33:11.892Z,10.50
2017-08-12T03:35:39.403Z,11.18
2017-08-12T03:38:06.913Z,12.98
2017-08-12T03:40:34.436Z,16.42
2017-08-12T03:43:01.964Z,15.68
2017-08-12T03:45:29.479Z,12.98
2017-08-12T03:47:57.989Z,14.87
2017-08-12T03:50:25.517Z,12.93
2017-08-12T03:52:53.043Z,11.20
2017-08-12T03:55:20.553Z,17.55
2017-08-12T03:57:48.064Z,10.27
2017-08-12T04:00:15.577Z,13.38
2017-08-12T04:02:43.088Z,12.73
2017-08-12T04:05:10.602Z,15.40
2017-08-12T04:07:38.109Z,13.60
2017-08-12T04:10:05.596Z,16.08
2017-08-12T04:12:33.119Z,14.35
2017-08-12T04:15:01.628Z,14.10
2017-08-12T04:17:29.140Z,14.38
2017-08-12T04:19:56.662Z,12.60
2017-08-12T04:22:24.164Z,16.08
2017-08-12T04:24:51.668Z,13.52
2017-08-12T04:27:19.194Z,13.75
2017-08-12T04:29:46.756Z,14.63
2017-08-12T04:32:14.301Z,12.27
2017-08-12T04:34:41.811Z,17.75
2017-08-12T04:37:09.326Z,19.17
2017-08-12T04:39:36.648Z,9.63
2017-08-12T04:42:04.157Z,13.10
2017-08-12T04:44:31.664Z,15.52
2017-08-12T04:46:59.176Z,12.88
2017-08-12T04:49:26.692Z,12.68
2017-08-12T04:51:54.205Z,11.70
2017-08-12T04:54:21.720Z,10.88
2017-08-12T04:56:49.241Z,9.93
2017-08-12T04:59:16.773Z,10.48
2017-08-12T05:01:44.312Z,11.70
2017-08-12T05:04:11.820Z,8.68
2017-08-12T05:06:39.319Z,9.70
2017-08-12T05:09:06.839Z,10.07
2017-08-12T05:11:34.345Z,8.45
2017-08-12T05:14:01.857Z,10.85
2017-08-12T05:16:29.360Z,7.20
2017-08-12T05:18:57.862Z,7.05
2017-08-12T05:21:27.348Z,6.05
2017-08-12T05:23:54.853Z,6.43
2017-08-12T05:26:22.370Z,7.50
2017-08-12T05:28:49.873Z,6.00
2017-08-12T05:31:17.382Z,6.25
2017-08-12T05:33:44.888Z,6.95
2017-08-12T05:36:12.397Z,4.90
2017-08-12T05:38:39.901Z,4.32
2017-08-12T05:41:07.418Z,5.40
2017-08-12T05:43:34.936Z,5.45
2017-08-12T05:46:02.444Z,5.40
2017-08-12T05:48:29.975Z,6.80
2017-08-12T05:50:57.489Z,5.30
2017-08-12T05:53:25.001Z,6.05
2017-08-12T05:55:52.325Z,6.95
2017-08-12T05:58:19.836Z,6.12
2017-08-12T06:00:47.364Z,6.35
2017-08-12T06:03:14.881Z,9.07
2017-08-12T06:05:42.409Z,5.90
2017-08-12T06:08:09.916Z,5.95
2017-08-12T06:10:37.424Z,5.68
2017-08-12T06:13:05.921Z,13.60
2017-08-12T06:15:33.436Z,5.65
2017-08-12T06:18:01.940Z,5.00
2017-08-12T06:20:29.457Z,5.00
2017-08-12T06:22:56.964Z,5.60
2017-08-12T06:25:24.475Z,4.72
2017-08-12T06:27:51.993Z,7.37
2017-08-12T06:30:19.504Z,5.00
2017-08-12T06:32:47.016Z,6.85
2017-08-12T06:35:14.529Z,7.03
2017-08-12T06:37:42.044Z,9.20
2017-08-12T06:40:09.553Z,5.22
2017-08-12T06:42:37.063Z,5.43
2017-08-12T06:45:04.573Z,5.72
2017-08-12T06:47:32.080Z,4.65
2017-08-12T06:49:59.589Z,5.05
2017-08-12T06:52:27.097Z,5.00
2017-08-12T06:54:54.609Z,5.45
2017-08-12T06:57:22.112Z,4.50
2017-08-12T06:59:49.617Z,3.47
2017-08-12T07:02:17.125Z,3.70
2017-08-12T07:04:44.638Z,4.05
2017-08-12T07:07:12.145Z,3.50
2017-08-12T07:09:39.648Z,3.12
2017-08-12T07:12:07.144Z,3.17
2017-08-12T07:14:34.651Z,4.65
2017-08-12T07:17:02.157Z,3.40
2017-08-12T07:19:29.660Z,3.58
2017-08-12T07:21:57.169Z,3.95
2017-08-12T07:24:24.672Z,2.90
2017-08-12T07:26:52.168Z,3.05
2017-08-12T07:29:19.668Z,3.47
2017-08-12T07:31:48.169Z,2.47
2017-08-12T07:34:15.673Z,1.90
2017-08-12T07:36:43.177Z,2.45
2017-08-12T07:39:10.686Z,1.80
2017-08-12T07:41:38.197Z,2.10
2017-08-12T07:44:05.697Z,1.50
2017-08-12T07:46:33.203Z,2.03
2017-08-12T07:49:00.700Z,1.58
2017-08-12T07:51:28.214Z,1.45
2017-08-12T07:53:56.717Z,1.58
2017-08-12T07:56:24.207Z,1.52
2017-08-12T07:58:52.710Z,1.48
2017-08-12T08:01:21.216Z,1.70
2017-08-12T08:03:48.722Z,1.20
2017-08-12T08:06:16.237Z,1.55
2017-08-12T08:08:43.733Z,5.47
2017-08-12T08:11:11.244Z,1.37
2017-08-12T08:13:38.748Z,1.08
2017-08-12T08:16:06.248Z,1.00
2017-08-12T08:18:33.748Z,1.10
2017-08-12T08:21:01.253Z,1.00
2017-08-12T08:23:28.758Z,1.25
2017-08-12T08:25:56.251Z,1.08
2017-08-12T08:28:23.753Z,1.00
2017-08-12T08:30:51.254Z,0.82
2017-08-12T08:33:18.766Z,6.93
2017-08-12T08:35:46.265Z,1.27
2017-08-12T08:38:13.768Z,5.07
2017-08-12T08:40:41.077Z,0.95
2017-08-12T08:43:08.581Z,0.98
2017-08-12T08:45:35.806Z,0.80
2017-08-12T08:48:03.026Z,0.80
2017-08-12T08:50:30.249Z,0.80
2017-08-12T08:52:57.752Z,6.05
2017-08-12T08:55:24.968Z,9.50
2017-08-12T08:57:54.126Z,1.13
2017-08-12T09:00:21.353Z,1.27
2017-08-12T09:02:48.568Z,1.10
2017-08-12T09:05:16.073Z,1.70
2017-08-12T09:07:43.300Z,24.63
2017-08-12T09:10:11.821Z,9.35
2017-08-12T09:12:39.325Z,1.10
2017-08-12T09:15:07.824Z,3.17
2017-08-12T09:17:35.314Z,1.10
2017-08-12T09:20:02.808Z,1.10
2017-08-12T09:22:30.307Z,1.30
2017-08-12T09:24:57.825Z,2.40
2017-08-12T09:27:25.322Z,1.80
2017-08-12T09:29:52.820Z,3.67
2017-08-12T09:32:20.325Z,1.65
2017-08-12T09:34:47.829Z,1.80
2017-08-12T09:37:15.333Z,2.12
2017-08-12T09:39:42.837Z,5.37
2017-08-12T09:42:10.345Z,2.35
2017-08-12T09:44:37.850Z,2.00
2017-08-12T09:47:05.348Z,1.90
2017-08-12T09:49:32.864Z,3.00
2017-08-12T09:52:00.809Z,1.95
2017-08-12T09:54:28.313Z,2.55
2017-08-12T09:56:55.812Z,2.65
2017-08-12T09:59:24.320Z,2.33
2017-08-12T10:01:51.815Z,2.72
2017-08-12T10:04:19.324Z,2.80
2017-08-12T10:06:46.832Z,2.95
2017-08-12T10:09:14.342Z,2.95
2017-08-12T10:11:41.843Z,3.15
2017-08-12T10:14:09.347Z,3.37
2017-08-12T10:16:36.861Z,2.90
2017-08-12T10:19:04.363Z,3.40
2017-08-12T10:21:31.869Z,2.47
2017-08-12T10:23:59.380Z,3.15
2017-08-12T10:26:26.881Z,2.55
2017-08-12T10:28:54.388Z,2.90
2017-08-12T10:31:21.896Z,2.50
2017-08-12T10:33:49.400Z,2.70
2017-08-12T10:36:16.901Z,2.80
2017-08-12T10:38:44.400Z,2.90
2017-08-12T10:41:11.914Z,3.37
2017-08-12T10:43:40.087Z,2.92
2017-08-12T10:46:07.588Z,2.40
2017-08-12T10:48:35.093Z,2.10
2017-08-12T10:51:02.313Z,2.10
2017-08-12T10:53:29.560Z,1.40
2017-08-12T10:55:58.754Z,1.73
2017-08-12T10:58:25.984Z,1.50
2017-08-12T11:00:53.213Z,1.50
2017-08-12T11:03:20.432Z,1.60
2017-08-12T11:05:47.648Z,1.50
2017-08-12T11:08:14.864Z,1.90
2017-08-12T11:10:42.104Z,1.53
2017-08-12T11:13:09.324Z,3.53
2017-08-12T11:15:36.550Z,1.40
2017-08-12T11:18:03.764Z,1.37
2017-08-12T11:20:30.985Z,1.47
2017-08-12T11:22:58.200Z,1.40
2017-08-12T11:25:25.426Z,1.40
2017-08-12T11:27:54.584Z,1.43
2017-08-12T11:30:21.800Z,1.37
2017-08-12T11:32:49.023Z,2.03
2017-08-12T11:35:16.239Z,1.70
2017-08-12T11:37:43.469Z,2.00
2017-08-12T11:40:10.680Z,1.67
2017-08-12T11:42:37.900Z,1.50
2017-08-12T11:45:05.123Z,1.40
2017-08-12T11:47:32.345Z,3.23
2017-08-12T11:49:59.564Z,1.10
2017-08-12T11:52:26.784Z,4.83
2017-08-12T11:54:54.004Z,2.00
2017-08-12T11:57:21.221Z,1.07
2017-08-12T11:59:48.444Z,1.10
2017-08-12T12:02:15.686Z,1.37
2017-08-12T12:04:44.864Z,1.60
2017-08-12T12:07:12.088Z,1.97
2017-08-12T12:09:39.315Z,0.90
2017-08-12T12:12:06.533Z,0.83
2017-08-12T12:14:33.774Z,1.70
2017-08-12T12:17:01.004Z,1.47
2017-08-12T12:19:28.240Z,1.37
2017-08-12T12:21:55.465Z,1.07
2017-08-12T12:24:22.687Z,1.20
2017-08-12T12:26:49.912Z,2.10
2017-08-12T12:29:17.133Z,1.00
2017-08-12T12:31:44.358Z,1.30
2017-08-12T12:34:11.581Z,1.17
2017-08-12T12:36:38.808Z,1.97
2017-08-12T12:39:06.048Z,1.20
2017-08-12T12:41:33.287Z,2.50
2017-08-12T12:44:00.517Z,1.30
2017-08-12T12:46:27.737Z,1.70
2017-08-12T12:48:54.960Z,1.40
2017-08-12T12:51:22.177Z,4.67
2017-08-12T12:53:49.400Z,1.57
2017-08-12T12:56:18.564Z,1.73
2017-08-12T12:58:45.786Z,1.27
2017-08-12T13:01:13.004Z,1.60
2017-08-12T13:03:40.220Z,1.70
2017-08-12T13:06:07.439Z,1.30
2017-08-12T13:08:34.657Z,1.37
2017-08-12T13:11:01.893Z,1.57
2017-08-12T13:13:29.120Z,1.47
2017-08-12T13:15:56.349Z,1.63
2017-08-12T13:18:23.580Z,1.90
2017-08-12T13:20:50.809Z,1.40
2017-08-12T13:23:18.037Z,1.80
2017-08-12T13:25:45.256Z,1.87
2017-08-12T13:28:12.476Z,1.43
2017-08-12T13:30:39.696Z,1.47
2017-08-12T13:33:06.918Z,1.20
2017-08-12T13:35:34.153Z,1.80
2017-08-12T13:38:01.370Z,1.80
2017-08-12T13:40:28.591Z,3.63
2017-08-12T13:42:55.810Z,1.60
2017-08-12T13:45:23.036Z,1.67
2017-08-12T13:47:50.276Z,1.67
2017-08-12T13:50:17.509Z,3.47
2017-08-12T13:52:44.733Z,3.30
2017-08-12T13:55:11.964Z,4.63
2017-08-12T13:57:39.194Z,3.90
2017-08-12T14:00:06.424Z,2.67
2017-08-12T14:02:33.652Z,2.50
2017-08-12T14:05:00.872Z,3.03
2017-08-12T14:07:28.112Z,2.50
2017-08-12T14:09:55.342Z,2.77
2017-08-12T14:12:22.568Z,2.80
2017-08-12T14:14:49.793Z,2.37
2017-08-12T14:17:17.022Z,3.30
2017-08-12T14:19:44.241Z,5.80
2017-08-12T14:22:11.464Z,4.70
2017-08-12T14:24:38.692Z,2.83
2017-08-12T14:27:05.913Z,4.33
2017-08-12T14:29:33.161Z,2.90
2017-08-12T14:32:00.398Z,3.37
2017-08-12T14:34:27.628Z,3.70
2017-08-12T14:36:56.816Z,4.57
2017-08-12T14:39:24.036Z,4.90
2017-08-12T14:41:51.265Z,5.83
2017-08-12T14:44:18.496Z,6.40
2017-08-12T14:46:47.668Z,5.60
2017-08-12T14:49:14.892Z,5.13
2017-08-12T14:51:42.120Z,4.63
2017-08-12T14:54:09.349Z,5.93
2017-08-12T14:56:36.572Z,3.90
2017-08-12T14:59:03.869Z,3.43
2017-08-12T15:01:31.092Z,2.80
2017-08-12T15:03:58.333Z,3.00
2017-08-12T15:06:25.548Z,3.00
2017-08-12T15:08:52.776Z,2.70
2017-08-12T15:11:21.945Z,4.60
2017-08-12T15:13:49.172Z,3.50
2017-08-12T15:16:16.398Z,3.53
2017-08-12T15:18:45.568Z,3.23
2017-08-12T15:21:12.781Z,3.23
2017-08-12T15:23:40.001Z,2.97
2017-08-12T15:26:07.225Z,3.17
2017-08-12T15:28:34.445Z,3.00
2017-08-12T15:31:01.664Z,3.10
2017-08-12T15:33:29.272Z,3.40
2017-08-12T15:35:56.780Z,2.70
2017-08-12T15:38:24.010Z,2.93
2017-08-12T15:40:51.242Z,7.60
2017-08-12T15:43:20.421Z,7.13
2017-08-12T15:45:47.645Z,4.17
2017-08-12T15:48:14.871Z,6.67
2017-08-12T15:50:42.088Z,2.70
2017-08-12T15:53:09.300Z,4.13
2017-08-12T15:55:36.518Z,7.17
2017-08-12T15:58:03.728Z,5.63
2017-08-12T16:00:32.885Z,7.50
2017-08-12T16:03:00.110Z,4.80
2017-08-12T16:05:27.588Z,4.50
2017-08-12T16:07:54.809Z,3.10
2017-08-12T16:10:22.032Z,4.13
2017-08-12T16:12:49.255Z,3.53
2017-08-12T16:15:16.478Z,2.93
2017-08-12T16:17:45.624Z,5.73
2017-08-12T16:20:12.851Z,5.80
2017-08-12T16:22:40.068Z,4.70
2017-08-12T16:25:07.303Z,4.33
2017-08-12T16:27:34.536Z,8.93
2017-08-12T16:30:01.753Z,3.93
2017-08-12T16:32:28.974Z,4.17
2017-08-12T16:34:56.197Z,3.67
2017-08-12T16:37:25.336Z,4.20
2017-08-12T16:39:52.560Z,3.17
2017-08-12T16:42:19.799Z,2.97
2017-08-12T16:44:47.037Z,3.37
2017-08-12T16:47:14.267Z,2.77
2017-08-12T16:49:41.488Z,3.57
2017-08-12T16:52:08.722Z,2.67
2017-08-12T16:54:35.939Z,3.03
2017-08-12T16:57:03.448Z,4.12
2017-08-12T16:59:30.664Z,5.17
2017-08-12T17:01:57.885Z,5.93
2017-08-12T17:04:25.120Z,3.70
2017-08-12T17:06:52.341Z,4.03
2017-08-12T17:09:19.560Z,3.97
2017-08-12T17:11:46.781Z,4.37
2017-08-12T17:14:14.024Z,3.70
2017-08-12T17:16:43.213Z,3.60
2017-08-12T17:19:10.432Z,2.63
2017-08-12T17:21:37.652Z,3.33
2017-08-12T17:24:04.877Z,4.30
2017-08-12T17:26:32.096Z,2.87
2017-08-12T17:28:59.332Z,2.87
2017-08-12T17:31:26.559Z,2.57
2017-08-12T17:33:53.785Z,3.70
2017-08-12T17:36:21.004Z,2.90
2017-08-12T17:38:48.224Z,3.70
2017-08-12T17:41:15.465Z,3.43
2017-08-12T17:43:43.356Z,4.07
2017-08-12T17:46:10.585Z,2.97
2017-08-12T17:48:37.802Z,3.37
2017-08-12T17:51:05.021Z,3.03
2017-08-12T17:53:32.240Z,2.83
2017-08-12T17:55:59.462Z,2.70
2017-08-12T17:58:26.689Z,3.00
2017-08-12T18:00:53.916Z,3.30
2017-08-12T18:03:21.136Z,2.90
2017-08-12T18:05:48.365Z,4.37
2017-08-12T18:08:17.512Z,3.43
2017-08-12T18:10:44.737Z,3.10
2017-08-12T18:13:11.957Z,5.17
2017-08-12T18:15:39.488Z,3.55
2017-08-12T18:18:06.713Z,3.20
2017-08-12T18:20:34.216Z,3.20
2017-08-12T18:23:03.416Z,3.10
2017-08-12T18:25:30.925Z,2.72
2017-08-12T18:27:58.437Z,4.70
2017-08-12T18:30:25.939Z,2.70
2017-08-12T18:32:53.448Z,2.95
2017-08-12T18:35:20.953Z,3.12
2017-08-12T18:37:48.460Z,3.17
2017-08-12T18:40:16.969Z,3.70
2017-08-12T18:42:46.434Z,3.10
2017-08-12T18:45:13.945Z,4.78
2017-08-12T18:47:41.457Z,3.50
2017-08-12T18:50:10.456Z,3.17
2017-08-12T18:52:37.957Z,3.25
2017-08-12T18:55:05.464Z,3.67
2017-08-12T18:57:32.969Z,4.78
2017-08-12T19:00:00.486Z,3.22
2017-08-12T19:02:27.989Z,3.12
2017-08-12T19:04:55.491Z,3.05
2017-08-12T19:07:23.006Z,13.80
2017-08-12T19:09:50.521Z,4.35
2017-08-12T19:12:18.032Z,7.25
2017-08-12T19:14:45.110Z,13.88
2017-08-12T19:17:12.628Z,12.68
2017-08-12T19:19:40.141Z,4.25
2017-08-12T19:22:07.661Z,3.55
2017-08-12T19:24:35.171Z,3.65
2017-08-12T19:27:02.681Z,4.05
2017-08-12T19:29:30.192Z,3.58
2017-08-12T19:31:57.701Z,5.18
2017-08-12T19:34:25.208Z,7.75
2017-08-12T19:36:52.712Z,9.95
2017-08-12T19:39:20.219Z,6.93
2017-08-12T19:41:47.720Z,4.95
2017-08-12T19:44:15.236Z,3.08
2017-08-12T19:46:43.745Z,3.90
2017-08-12T19:49:13.208Z,3.20
2017-08-12T19:51:40.732Z,3.37
2017-08-12T19:54:08.242Z,4.15
2017-08-12T19:56:35.765Z,6.18
2017-08-12T19:59:03.275Z,3.72
2017-08-12T20:01:30.789Z,3.55
2017-08-12T20:03:58.309Z,5.50
2017-08-12T20:06:25.826Z,4.72
2017-08-12T20:08:53.337Z,10.35
2017-08-12T20:11:20.837Z,7.80
2017-08-12T20:13:48.344Z,7.80
2017-08-12T20:16:15.849Z,4.18
2017-08-12T20:18:43.385Z,4.90
2017-08-12T20:21:10.907Z,9.20
2017-08-12T20:23:38.234Z,8.20
2017-08-12T20:26:05.745Z,9.73
2017-08-12T20:28:33.261Z,5.32
2017-08-12T20:31:00.784Z,5.18
2017-08-12T20:33:28.296Z,7.05
2017-08-12T20:35:55.805Z,8.07
2017-08-12T20:38:23.316Z,8.50
2017-08-12T20:40:50.829Z,8.98
2017-08-12T20:43:18.343Z,7.90
2017-08-12T20:45:45.855Z,6.87
2017-08-12T20:48:13.366Z,7.53
2017-08-12T20:50:40.873Z,9.52
2017-08-12T20:53:08.408Z,4.40
2017-08-12T20:55:35.928Z,5.95
2017-08-12T20:58:03.440Z,7.32
2017-08-12T21:00:31.952Z,5.50
2017-08-12T21:03:01.410Z,5.00
2017-08-12T21:05:28.896Z,4.85
2017-08-12T21:07:56.412Z,5.90
2017-08-12T21:10:23.921Z,6.00
2017-08-12T21:12:51.441Z,4.12
2017-08-12T21:15:18.949Z,5.28
2017-08-12T21:17:46.465Z,5.43
2017-08-12T21:20:13.974Z,4.80
2017-08-12T21:22:41.490Z,4.43
2017-08-12T21:25:09.001Z,8.23
2017-08-12T21:27:36.505Z,4.72
2017-08-12T21:30:04.012Z,4.55
2017-08-12T21:32:31.512Z,4.30
2017-08-12T21:34:59.017Z,6.37
2017-08-12T21:37:26.543Z,5.22
2017-08-12T21:39:54.056Z,4.03
2017-08-12T21:42:21.572Z,4.12
2017-08-12T21:44:49.084Z,3.40
2017-08-12T21:47:16.596Z,4.12
2017-08-12T21:49:44.115Z,5.28
2017-08-12T21:52:11.616Z,4.60
2017-08-12T21:54:40.116Z,3.85
2017-08-12T21:57:07.633Z,4.45
2017-08-12T21:59:35.158Z,4.05
2017-08-12T22:02:02.673Z,4.40
2017-08-12T22:04:30.176Z,4.00
2017-08-12T22:06:57.689Z,5.72
2017-08-12T22:09:25.013Z,4.50
2017-08-12T22:11:52.525Z,4.20
2017-08-12T22:14:20.024Z,6.00
2017-08-12T22:16:47.525Z,4.10
2017-08-12T22:19:15.044Z,4.50
2017-08-12T22:21:42.552Z,4.30
2017-08-12T22:24:10.056Z,3.75
2017-08-12T22:26:37.576Z,9.13
2017-08-12T22:29:05.090Z,3.80
2017-08-12T22:31:32.601Z,3.35
2017-08-12T22:34:00.108Z,3.90
2017-08-12T22:36:27.644Z,3.67
2017-08-12T22:38:55.159Z,4.03
2017-08-12T22:41:22.674Z,4.20
2017-08-12T22:43:51.189Z,7.50
2017-08-12T22:46:18.705Z,5.07
2017-08-12T22:48:46.208Z,3.92
2017-08-12T22:51:13.720Z,6.87
2017-08-12T22:53:42.226Z,3.30
2017-08-12T22:56:09.732Z,5.20
2017-08-12T22:58:37.240Z,3.90
2017-08-12T23:01:04.755Z,3.15
2017-08-12T23:03:33.264Z,3.20
2017-08-12T23:06:00.769Z,3.00
2017-08-12T23:08:28.285Z,4.62
2017-08-12T23:10:55.801Z,5.25
2017-08-12T23:13:23.312Z,3.92
2017-08-12T23:15:50.822Z,10.52
2017-08-12T23:18:18.333Z,3.33
2017-08-12T23:20:45.852Z,4.68
2017-08-12T23:23:13.356Z,2.80
2017-08-12T23:25:40.865Z,3.55
2017-08-12T23:28:08.370Z,3.95
2017-08-12T23:30:35.876Z,4.62
2017-08-12T23:33:03.384Z,5.35
2017-08-12T23:35:30.881Z,2.80
2017-08-12T23:37:59.382Z,4.45
2017-08-12T23:40:27.896Z,3.47
2017-08-12T23:42:55.400Z,2.67
2017-08-12T23:45:22.918Z,3.58
2017-08-12T23:47:50.434Z,3.10
2017-08-12T23:50:17.945Z,3.12
2017-08-12T23:52:45.460Z,3.80
2017-08-12T23:55:12.977Z,3.58
2017-08-12T23:57:40.484Z,4.62
